createdAt,value
2022-08-14T00:02:26.997Z,100164.00
2022-08-14T00:04:55.829Z,100163.00
2022-08-14T00:07:23.841Z,100157.00
2022-08-14T00:10:01.246Z,100151.00
2022-08-14T00:12:33.807Z,100149.00
2022-08-14T00:15:15.362Z,100147.00
2022-08-14T00:17:48.477Z,100150.00
2022-08-14T00:20:30.333Z,100146.00
2022-08-14T00:23:08.365Z,100149.00
2022-08-14T00:25:43.857Z,100141.00
2022-08-14T00:28:32.516Z,100138.00
2022-08-14T00:31:00.930Z,100145.00
2022-08-14T00:33:52.469Z,100153.00
2022-08-14T00:36:35.888Z,100140.00
2022-08-14T00:39:06.723Z,100145.00
2022-08-14T00:41:38.822Z,100135.00
2022-08-14T00:44:08.175Z,100139.00
2022-08-14T00:46:38.607Z,100135.00
2022-08-14T00:49:08.278Z,100141.00
2022-08-14T00:51:41.105Z,100137.00
2022-08-14T00:54:11.012Z,100143.00
2022-08-14T00:56:45.786Z,100139.00
2022-08-14T00:59:14.849Z,100128.00
2022-08-14T01:01:44.763Z,100128.00
2022-08-14T01:04:51.770Z,100123.00
2022-08-14T01:07:07.478Z,100115.00
2022-08-14T01:09:37.823Z,100115.00
2022-08-14T01:12:07.958Z,100108.00
2022-08-14T01:14:36.427Z,100109.00
2022-08-14T01:17:05.146Z,100106.00
2022-08-14T01:19:55.299Z,100115.00
2022-08-14T01:22:26.944Z,100105.00
2022-08-14T01:24:57.887Z,100096.00
2022-08-14T01:27:27.770Z,100098.00
2022-08-14T01:30:03.618Z,100099.00
2022-08-14T01:32:37.285Z,100099.00
2022-08-14T01:35:21.297Z,100098.00
2022-08-14T01:37:57.076Z,100096.00
2022-08-14T01:40:33.320Z,100099.00
2022-08-14T01:43:18.947Z,100095.00
2022-08-14T01:45:57.590Z,100088.00
2022-08-14T01:48:37.338Z,100089.00
2022-08-14T01:51:18.833Z,100082.00
2022-08-14T01:53:54.728Z,100082.00
2022-08-14T01:56:39.892Z,100081.00
2022-08-14T01:59:20.108Z,100085.00
2022-08-14T02:01:58.046Z,100086.00
2022-08-14T02:04:55.872Z,100099.00
2022-08-14T02:07:34.446Z,100086.00
2022-08-14T02:10:15.530Z,100088.00
2022-08-14T02:12:54.015Z,100082.00
2022-08-14T02:15:26.454Z,100081.00
2022-08-14T02:17:54.262Z,100088.00
2022-08-14T02:20:23.811Z,100082.00
2022-08-14T02:22:55.002Z,100068.00
2022-08-14T02:25:24.620Z,100083.00
2022-08-14T02:28:23.175Z,100075.00
2022-08-14T02:30:46.309Z,100074.00
2022-08-14T02:33:14.271Z,100064.00
2022-08-14T02:35:43.737Z,100067.00
2022-08-14T02:38:30.444Z,100073.00
2022-08-14T02:41:02.240Z,100069.00
2022-08-14T02:43:46.335Z,100063.00
2022-08-14T02:46:20.495Z,100058.00
2022-08-14T02:49:03.761Z,100063.00
2022-08-14T02:51:36.516Z,100066.00
2022-08-14T02:54:07.852Z,100058.00
2022-08-14T02:57:16.317Z,100054.00
2022-08-14T02:59:33.612Z,100045.00
2022-08-14T03:02:03.406Z,100042.00
2022-08-14T03:04:32.703Z,100051.00
2022-08-14T03:07:07.600Z,100044.00
2022-08-14T03:10:26.092Z,100044.00
2022-08-14T03:12:31.889Z,100036.00
2022-08-14T03:15:13.988Z,100034.00
2022-08-14T03:17:57.305Z,100040.00
2022-08-14T03:20:30.511Z,100031.00
2022-08-14T03:23:03.349Z,100030.00
2022-08-14T03:25:37.946Z,100029.00
2022-08-14T03:28:07.829Z,100029.00
2022-08-14T03:30:44.452Z,100030.00
2022-08-14T03:33:15.688Z,100037.00
2022-08-14T03:35:59.516Z,100037.00
2022-08-14T03:39:14.094Z,100035.00
2022-08-14T03:41:19.538Z,100039.00
2022-08-14T03:43:57.531Z,100033.00
2022-08-14T03:46:52.335Z,100033.00
2022-08-14T03:49:29.449Z,100032.00
2022-08-14T03:52:00.374Z,100030.00
2022-08-14T03:54:29.893Z,100023.00
2022-08-14T03:57:02.673Z,100022.00
2022-08-14T03:59:32.905Z,100024.00
2022-08-14T04:02:02.381Z,100021.00
2022-08-14T04:04:33.568Z,100018.00
2022-08-14T04:07:01.871Z,100013.00
2022-08-14T04:09:29.785Z,100007.00
2022-08-14T04:11:59.635Z,100005.00
2022-08-14T04:14:29.426Z,100014.00
2022-08-14T04:16:57.464Z,100005.00
2022-08-14T04:19:28.079Z,100004.00
2022-08-14T04:22:03.523Z,99999.00
2022-08-14T04:24:37.837Z,100000.00
2022-08-14T04:27:09.743Z,99997.00
2022-08-14T04:29:45.074Z,99998.00
2022-08-14T04:33:02.479Z,99995.00
2022-08-14T04:35:07.187Z,99996.00
2022-08-14T04:37:54.373Z,99993.00
2022-08-14T04:40:41.022Z,99990.00
2022-08-14T04:43:38.330Z,99986.00
2022-08-14T04:46:57.475Z,99978.00
2022-08-14T04:49:00.538Z,99978.00
2022-08-14T04:51:30.141Z,99977.00
2022-08-14T04:54:13.843Z,99968.00
2022-08-14T04:56:47.891Z,99965.00
2022-08-14T04:59:15.803Z,99966.00
2022-08-14T05:01:49.824Z,99969.00
2022-08-14T05:04:21.396Z,99969.00
2022-08-14T05:06:53.608Z,99968.00
2022-08-14T05:09:24.081Z,99956.00
2022-08-14T05:11:53.216Z,99957.00
2022-08-14T05:14:45.232Z,99956.00
2022-08-14T05:17:12.347Z,99957.00
2022-08-14T05:19:44.662Z,99957.00
2022-08-14T05:22:28.746Z,99954.00
2022-08-14T05:24:57.075Z,99956.00
2022-08-14T05:27:25.841Z,99958.00
2022-08-14T05:29:59.003Z,99958.00
2022-08-14T05:32:27.953Z,99968.00
2022-08-14T05:35:00.419Z,99959.00
2022-08-14T05:37:29.869Z,99955.00
2022-08-14T05:40:00.593Z,99957.00
2022-08-14T05:42:32.226Z,99954.00
2022-08-14T05:45:04.511Z,99949.00
2022-08-14T05:47:39.218Z,99951.00
2022-08-14T05:50:17.607Z,99947.00
2022-08-14T05:52:48.386Z,99938.00
2022-08-14T05:55:21.928Z,99941.00
2022-08-14T05:58:00.166Z,99935.00
2022-08-14T06:00:38.770Z,99936.00
2022-08-14T06:03:12.929Z,99933.00
2022-08-14T06:05:41.495Z,99931.00
2022-08-14T06:08:31.460Z,99934.00
2022-08-14T06:11:06.429Z,99928.00
2022-08-14T06:13:41.124Z,99920.00
2022-08-14T06:16:18.233Z,99920.00
2022-08-14T06:18:51.838Z,99927.00
2022-08-14T06:21:22.636Z,99921.00
2022-08-14T06:23:51.401Z,99925.00
2022-08-14T06:26:20.667Z,99924.00
2022-08-14T06:28:52.343Z,99922.00
2022-08-14T06:31:22.878Z,99916.00
2022-08-14T06:35:03.351Z,99915.00
2022-08-14T06:36:39.409Z,99902.00
2022-08-14T06:39:10.319Z,99905.00
2022-08-14T06:41:57.803Z,99901.00
2022-08-14T06:44:32.241Z,99901.00
2022-08-14T06:47:02.883Z,99897.00
2022-08-14T06:49:44.153Z,99894.00
2022-08-14T06:52:16.228Z,99897.00
2022-08-14T06:54:45.638Z,99892.00
2022-08-14T06:57:14.190Z,99899.00
2022-08-14T06:59:42.280Z,99906.00
2022-08-14T07:02:30.007Z,99899.00
2022-08-14T07:05:20.798Z,99896.00
2022-08-14T07:07:51.119Z,99887.00
2022-08-14T07:10:19.374Z,99891.00
2022-08-14T07:13:01.104Z,99889.00
2022-08-14T07:15:33.708Z,99892.00
2022-08-14T07:18:04.793Z,99892.00
2022-08-14T07:20:37.655Z,99895.00
2022-08-14T07:23:11.088Z,99890.00
2022-08-14T07:25:48.737Z,99890.00
2022-08-14T07:28:25.551Z,99884.00
2022-08-14T07:31:04.579Z,99880.00
2022-08-14T07:33:41.844Z,99878.00
2022-08-14T07:36:27.886Z,99898.00
2022-08-14T07:39:00.416Z,99891.00
2022-08-14T07:41:34.141Z,99888.00
2022-08-14T07:44:29.438Z,99894.00
2022-08-14T07:46:52.852Z,99885.00
2022-08-14T07:49:21.602Z,99878.00
2022-08-14T07:51:52.143Z,99886.00
2022-08-14T07:54:22.842Z,99880.00
2022-08-14T07:57:06.598Z,99889.00
2022-08-14T07:59:44.478Z,99888.00
2022-08-14T08:02:18.628Z,99885.00
2022-08-14T08:04:59.032Z,99889.00
2022-08-14T08:07:31.146Z,99888.00
2022-08-14T08:10:00.830Z,99883.00
2022-08-14T08:12:32.122Z,99888.00
2022-08-14T08:15:07.429Z,99889.00
2022-08-14T08:17:42.706Z,99886.00
2022-08-14T08:20:27.442Z,99885.00
2022-08-14T08:23:00.231Z,99884.00
2022-08-14T08:25:31.500Z,99893.00
2022-08-14T08:28:19.892Z,99886.00
2022-08-14T08:30:56.550Z,99887.00
2022-08-14T08:33:32.283Z,99890.00
2022-08-14T08:36:12.853Z,99885.00
2022-08-14T08:39:18.341Z,99892.00
2022-08-14T08:41:50.577Z,99881.00
2022-08-14T08:44:32.758Z,99884.00
2022-08-14T08:47:08.174Z,99883.00
2022-08-14T08:49:52.816Z,99882.00
2022-08-14T08:52:31.209Z,99882.00
2022-08-14T08:55:04.987Z,99875.00
2022-08-14T08:57:38.062Z,99874.00
2022-08-14T09:00:25.683Z,99869.00
2022-08-14T09:03:04.046Z,99871.00
2022-08-14T09:05:34.387Z,99872.00
2022-08-14T09:08:31.519Z,99872.00
2022-08-14T09:11:19.735Z,99864.00
2022-08-14T09:13:53.898Z,99857.00
2022-08-14T09:16:24.908Z,99857.00
2022-08-14T09:18:54.671Z,99851.00
2022-08-14T09:21:23.842Z,99851.00
2022-08-14T09:24:26.785Z,99854.00
2022-08-14T09:26:49.251Z,99859.00
2022-08-14T09:29:20.017Z,99847.00
2022-08-14T09:31:57.055Z,99850.00
2022-08-14T09:34:40.015Z,99851.00
2022-08-14T09:37:44.742Z,99841.00
2022-08-14T09:40:39.757Z,99840.00
2022-08-14T09:43:29.765Z,99841.00
2022-08-14T09:46:01.042Z,99839.00
2022-08-14T09:48:31.438Z,99842.00
2022-08-14T09:54:17.790Z,99837.00
2022-08-14T09:56:45.993Z,99836.00
2022-08-14T09:59:28.242Z,99828.00
2022-08-14T10:02:00.017Z,99827.00
2022-08-14T10:04:36.016Z,99830.00
2022-08-14T10:07:10.534Z,99820.00
2022-08-14T10:10:00.172Z,99812.00
2022-08-14T10:12:53.091Z,99807.00
2022-08-14T10:15:30.090Z,99800.00
2022-08-14T10:18:18.215Z,99796.00
2022-08-14T10:20:58.113Z,99795.00
2022-08-14T10:23:39.901Z,99792.00
2022-08-14T10:26:30.180Z,99784.00
2022-08-14T10:29:19.649Z,99785.00
2022-08-14T10:31:59.652Z,99782.00
2022-08-14T10:34:35.661Z,99784.00
2022-08-14T10:37:14.638Z,99787.00
2022-08-14T10:39:51.386Z,99784.00
2022-08-14T10:42:41.455Z,99782.00
2022-08-14T10:45:24.387Z,99787.00
2022-08-14T10:48:07.880Z,99781.00
2022-08-14T10:50:46.601Z,99786.00
2022-08-14T10:53:15.424Z,99772.00
2022-08-14T10:55:45.397Z,99771.00
2022-08-14T10:58:14.784Z,99764.00
2022-08-14T11:00:56.581Z,99768.00
2022-08-14T11:03:35.854Z,99760.00
2022-08-14T11:06:20.217Z,99758.00
2022-08-14T11:08:50.818Z,99758.00
2022-08-14T11:11:19.858Z,99756.00
2022-08-14T11:13:50.735Z,99754.00
2022-08-14T11:16:19.612Z,99764.00
2022-08-14T11:18:51.574Z,99755.00
2022-08-14T11:21:24.380Z,99767.00
2022-08-14T11:23:58.836Z,99755.00
2022-08-14T11:26:30.035Z,99748.00
2022-08-14T11:28:59.924Z,99734.00
2022-08-14T11:31:38.537Z,99729.00
2022-08-14T11:34:10.483Z,99731.00
2022-08-14T11:37:02.174Z,99731.00
2022-08-14T11:39:45.481Z,99730.00
2022-08-14T11:42:58.114Z,99729.00
2022-08-14T11:45:23.054Z,99715.00
2022-08-14T11:48:12.741Z,99720.00
2022-08-14T11:50:41.171Z,99708.00
2022-08-14T11:53:31.656Z,99709.00
2022-08-14T11:56:05.588Z,99696.00
2022-08-14T11:58:36.301Z,99697.00
2022-08-14T12:01:07.426Z,99687.00
2022-08-14T12:03:52.344Z,99702.00
2022-08-14T12:06:28.683Z,99686.00
2022-08-14T12:09:08.505Z,99686.00
2022-08-14T12:11:47.078Z,99685.00
2022-08-14T12:14:30.710Z,99671.00
2022-08-14T12:17:12.676Z,99675.00
2022-08-14T12:20:00.254Z,99683.00
2022-08-14T12:22:35.697Z,99676.00
2022-08-14T12:25:11.514Z,99669.00
2022-08-14T12:27:53.149Z,99670.00
2022-08-14T12:30:41.750Z,99672.00
2022-08-14T12:33:32.884Z,99665.00
2022-08-14T12:36:06.160Z,99673.00
2022-08-14T12:38:45.087Z,99665.00
2022-08-14T12:41:22.164Z,99663.00
2022-08-14T12:44:02.171Z,99653.00
2022-08-14T12:46:30.893Z,99646.00
2022-08-14T12:49:06.807Z,99647.00
2022-08-14T12:51:35.830Z,99647.00
2022-08-14T12:54:26.927Z,99636.00
2022-08-14T12:57:04.975Z,99633.00
2022-08-14T12:59:33.894Z,99620.00
2022-08-14T13:02:12.807Z,99624.00
2022-08-14T13:04:43.225Z,99617.00
2022-08-14T13:07:11.143Z,99622.00
2022-08-14T13:09:38.904Z,99621.00
2022-08-14T13:12:32.602Z,99616.00
2022-08-14T13:15:01.059Z,99609.00
2022-08-14T13:17:29.411Z,99594.00
2022-08-14T13:20:10.120Z,99592.00
2022-08-14T13:22:44.515Z,99583.00
2022-08-14T13:25:21.609Z,99582.00
2022-08-14T13:27:54.604Z,99580.00
2022-08-14T13:30:25.091Z,99571.00
2022-08-14T13:32:54.808Z,99571.00
2022-08-14T13:35:26.680Z,99550.00
2022-08-14T13:37:54.851Z,99557.00
2022-08-14T13:40:26.609Z,99550.00
2022-08-14T13:42:57.101Z,99545.00
2022-08-14T13:45:59.357Z,99543.00
2022-08-14T13:48:28.637Z,99542.00
2022-08-14T13:51:10.743Z,99539.00
2022-08-14T13:54:07.195Z,99535.00
2022-08-14T13:56:42.370Z,99537.00
2022-08-14T13:59:12.008Z,99532.00
2022-08-14T14:01:51.592Z,99519.00
2022-08-14T14:04:20.321Z,99524.00
2022-08-14T14:06:51.073Z,99519.00
2022-08-14T14:09:32.430Z,99516.00
2022-08-14T14:12:36.481Z,99511.00
2022-08-14T14:15:13.751Z,99504.00
2022-08-14T14:17:44.175Z,99504.00
2022-08-14T14:20:34.598Z,99501.00
2022-08-14T14:23:09.296Z,99500.00
2022-08-14T14:25:46.143Z,99491.00
2022-08-14T14:28:24.342Z,99482.00
2022-08-14T14:30:57.505Z,99479.00
2022-08-14T14:33:47.374Z,99482.00
2022-08-14T14:36:22.032Z,99479.00
2022-08-14T14:38:59.595Z,99473.00
2022-08-14T14:41:37.706Z,99469.00
2022-08-14T14:44:09.030Z,99471.00
2022-08-14T14:46:41.429Z,99479.00
2022-08-14T14:49:14.808Z,99478.00
2022-08-14T14:51:51.137Z,99477.00
2022-08-14T14:54:32.184Z,99470.00
2022-08-14T14:57:09.284Z,99470.00
2022-08-14T14:59:37.649Z,99471.00
2022-08-14T15:02:08.206Z,99469.00
2022-08-14T15:04:43.718Z,99465.00
2022-08-14T15:07:12.410Z,99466.00
2022-08-14T15:09:41.022Z,99465.00
2022-08-14T15:12:34.711Z,99464.00
2022-08-14T15:15:08.057Z,99456.00
2022-08-14T15:17:40.878Z,99450.00
2022-08-14T15:20:17.347Z,99449.00
2022-08-14T15:22:58.053Z,99441.00
2022-08-14T15:25:26.365Z,99446.00
2022-08-14T15:27:55.153Z,99449.00
2022-08-14T15:30:23.638Z,99439.00
2022-08-14T15:32:53.139Z,99428.00
2022-08-14T15:35:25.568Z,99421.00
2022-08-14T15:37:56.026Z,99423.00
2022-08-14T15:40:24.540Z,99420.00
2022-08-14T15:42:52.711Z,99419.00
2022-08-14T15:45:21.776Z,99420.00
2022-08-14T15:47:51.741Z,99415.00
2022-08-14T15:50:20.435Z,99415.00
2022-08-14T15:52:48.899Z,99414.00
2022-08-14T15:55:17.322Z,99409.00
2022-08-14T15:58:02.408Z,99407.00
2022-08-14T16:00:53.279Z,99406.00
2022-08-14T16:03:27.612Z,99398.00
2022-08-14T16:06:15.499Z,99403.00
2022-08-14T16:08:50.162Z,99397.00
2022-08-14T16:11:21.983Z,99388.00
2022-08-14T16:13:50.376Z,99401.00
2022-08-14T16:16:49.178Z,99397.00
2022-08-14T16:19:14.567Z,99390.00
2022-08-14T16:22:02.097Z,99395.00
2022-08-14T16:24:57.833Z,99385.00
2022-08-14T16:27:37.260Z,99383.00
2022-08-14T16:30:25.588Z,99375.00
2022-08-14T16:32:57.672Z,99364.00
2022-08-14T16:35:43.459Z,99363.00
2022-08-14T16:38:45.491Z,99368.00
2022-08-14T16:41:23.183Z,99370.00
2022-08-14T16:43:59.139Z,99369.00
2022-08-14T16:46:31.623Z,99369.00
2022-08-14T16:49:05.812Z,99369.00
2022-08-14T16:51:38.316Z,99365.00
2022-08-14T16:54:10.631Z,99356.00
2022-08-14T16:57:13.220Z,99351.00
2022-08-14T16:59:51.889Z,99352.00
2022-08-14T17:02:42.810Z,99351.00
2022-08-14T17:05:25.050Z,99358.00
2022-08-14T17:08:32.342Z,99352.00
2022-08-14T17:10:54.276Z,99353.00
2022-08-14T17:13:59.215Z,99350.00
2022-08-14T17:16:24.878Z,99351.00
2022-08-14T17:19:00.869Z,99345.00
2022-08-14T17:21:32.341Z,99341.00
2022-08-14T17:24:51.406Z,99337.00
2022-08-14T17:26:56.440Z,99335.00
2022-08-14T17:29:31.233Z,99337.00
2022-08-14T17:32:28.465Z,99336.00
2022-08-14T17:34:58.012Z,99333.00
2022-08-14T17:37:34.294Z,99340.00
2022-08-14T17:40:15.191Z,99337.00
2022-08-14T17:42:51.508Z,99333.00
2022-08-14T17:45:41.611Z,99342.00
2022-08-14T17:49:15.913Z,99335.00
2022-08-14T17:51:23.380Z,99340.00
2022-08-14T17:54:01.451Z,99325.00
2022-08-14T17:56:32.292Z,99333.00
2022-08-14T17:59:05.357Z,99332.00
2022-08-14T18:01:37.923Z,99326.00
2022-08-14T18:04:24.925Z,99332.00
2022-08-14T18:07:16.334Z,99328.00
2022-08-14T18:09:57.201Z,99333.00
2022-08-14T18:12:37.043Z,99329.00
2022-08-14T18:15:17.606Z,99328.00
2022-08-14T18:17:52.676Z,99331.00
2022-08-14T18:21:42.103Z,99332.00
2022-08-14T18:23:14.354Z,99336.00
2022-08-14T18:25:51.582Z,99337.00
2022-08-14T18:28:51.680Z,99334.00
2022-08-14T18:31:22.753Z,99335.00
2022-08-14T18:34:00.682Z,99338.00
2022-08-14T18:36:57.075Z,99333.00
2022-08-14T18:40:01.547Z,99339.00
2022-08-14T18:42:30.449Z,99341.00
2022-08-14T18:45:01.006Z,99343.00
2022-08-14T18:48:03.407Z,99342.00
2022-08-14T18:50:31.125Z,99343.00
2022-08-14T18:53:11.238Z,99354.00
2022-08-14T18:55:52.902Z,99348.00
2022-08-14T18:58:24.638Z,99353.00
2022-08-14T19:00:58.805Z,99347.00
2022-08-14T19:03:46.400Z,99356.00
2022-08-14T19:06:16.810Z,99361.00
2022-08-14T19:08:49.811Z,99361.00
2022-08-14T19:11:34.504Z,99364.00
2022-08-14T19:14:04.964Z,99363.00
2022-08-14T19:16:37.784Z,99372.00
2022-08-14T19:19:12.740Z,99364.00
2022-08-14T19:21:56.301Z,99367.00
2022-08-14T19:24:43.928Z,99370.00
2022-08-14T19:27:16.726Z,99376.00
2022-08-14T19:29:47.811Z,99366.00
2022-08-14T19:32:40.363Z,99371.00
2022-08-14T19:35:49.501Z,99378.00
2022-08-14T19:38:44.885Z,99373.00
2022-08-14T19:41:19.118Z,99378.00
2022-08-14T19:43:55.276Z,99369.00
2022-08-14T19:46:38.496Z,99369.00
2022-08-14T19:49:23.124Z,99367.00
2022-08-14T19:52:17.655Z,99371.00
2022-08-14T19:54:52.538Z,99363.00
2022-08-14T19:57:23.841Z,99370.00
2022-08-14T20:00:01.200Z,99365.00
2022-08-14T20:02:46.503Z,99358.00
2022-08-14T20:05:16.388Z,99361.00
2022-08-14T20:07:59.758Z,99361.00
2022-08-14T20:11:03.174Z,99358.00
2022-08-14T20:13:32.617Z,99359.00
2022-08-14T20:18:57.616Z,99364.00
2022-08-14T20:21:34.546Z,99352.00
2022-08-14T20:24:41.194Z,99358.00
2022-08-14T20:27:21.990Z,99358.00
2022-08-14T20:30:28.989Z,99360.00
2022-08-14T20:32:58.523Z,99347.00
2022-08-14T20:35:38.304Z,99360.00
2022-08-14T20:38:29.329Z,99355.00
2022-08-14T20:41:07.548Z,99343.00
2022-08-14T20:43:58.547Z,99353.00
2022-08-14T20:46:31.223Z,99351.00
2022-08-14T20:49:12.555Z,99347.00
2022-08-14T20:51:54.788Z,99356.00
2022-08-14T20:54:36.420Z,99347.00
2022-08-14T20:57:20.057Z,99348.00
2022-08-14T20:59:57.151Z,99342.00
2022-08-14T21:02:49.885Z,99343.00
2022-08-14T21:05:22.566Z,99338.00
2022-08-14T21:08:07.856Z,99341.00
2022-08-14T21:10:44.546Z,99349.00
2022-08-14T21:14:08.648Z,99338.00
2022-08-14T21:16:33.644Z,99341.00
2022-08-14T21:19:02.275Z,99344.00
2022-08-14T21:21:40.615Z,99343.00
2022-08-14T21:24:38.430Z,99339.00
2022-08-14T21:27:13.170Z,99342.00
2022-08-14T21:29:55.543Z,99338.00
2022-08-14T21:32:50.062Z,99335.00
2022-08-14T21:35:26.379Z,99336.00
2022-08-14T21:37:55.814Z,99329.00
2022-08-14T21:40:41.997Z,99332.00
2022-08-14T21:43:18.140Z,99333.00
2022-08-14T21:45:54.083Z,99328.00
2022-08-14T21:48:30.128Z,99328.00
2022-08-14T21:51:53.631Z,99326.00
2022-08-14T21:53:57.971Z,99331.00
2022-08-14T21:56:39.063Z,99323.00
2022-08-14T21:59:17.719Z,99324.00
2022-08-14T22:02:00.726Z,99322.00
2022-08-14T22:04:40.563Z,99324.00
2022-08-14T22:07:16.913Z,99318.00
2022-08-14T22:09:54.646Z,99322.00
2022-08-14T22:12:58.026Z,99304.00
2022-08-14T22:15:16.641Z,99308.00
2022-08-14T22:17:51.057Z,99310.00
2022-08-14T22:20:23.052Z,99308.00
2022-08-14T22:22:56.124Z,99306.00
2022-08-14T22:25:33.353Z,99305.00
2022-08-14T22:28:07.528Z,99298.00
2022-08-14T22:30:38.133Z,99291.00
2022-08-14T22:33:13.514Z,99297.00
2022-08-14T22:35:41.845Z,99293.00
2022-08-14T22:38:37.407Z,99292.00
2022-08-14T22:41:25.681Z,99285.00
2022-08-14T22:43:52.557Z,99290.00
2022-08-14T22:46:21.704Z,99285.00
2022-08-14T22:48:50.051Z,99280.00
2022-08-14T22:51:19.825Z,99288.00
2022-08-14T22:53:49.026Z,99282.00
2022-08-14T22:56:29.346Z,99280.00
2022-08-14T22:59:00.659Z,99271.00
2022-08-14T23:01:56.337Z,99276.00
2022-08-14T23:04:34.812Z,99268.00
2022-08-14T23:07:23.184Z,99265.00
2022-08-14T23:09:57.751Z,99269.00
2022-08-14T23:12:54.604Z,99261.00
2022-08-14T23:15:29.891Z,99255.00
2022-08-14T23:17:59.003Z,99256.00
2022-08-14T23:20:29.428Z,99256.00
2022-08-14T23:22:58.086Z,99258.00
2022-08-14T23:25:57.483Z,99252.00
2022-08-14T23:28:33.495Z,99263.00
2022-08-14T23:31:14.050Z,99262.00
2022-08-14T23:33:46.014Z,99257.00
2022-08-14T23:36:32.201Z,99259.00
2022-08-14T23:39:10.513Z,99259.00
2022-08-14T23:41:45.932Z,99251.00
2022-08-14T23:44:21.526Z,99241.00
2022-08-14T23:46:56.459Z,99243.00
2022-08-14T23:49:26.229Z,99232.00
2022-08-14T23:52:51.014Z,99239.00
2022-08-14T23:54:48.098Z,99234.00
2022-08-14T23:57:19.502Z,99219.00
2022-08-14T23:59:54.738Z,99228.00
